| time (UTC) | temp F | wind direction | speed knots | gust knots | rain 1hr in | rain 24hr in | rain mn in | humidity % | barometer mb |
| 20260503185003 | 72 | 287 | 0.9 | 3.5 | 0.00 | 0.00 | 0.00 | 36 | 1019.1 |
| 20260503184512 | 72 | 282 | 0.9 | 3.5 | 0.00 | 0.00 | 0.00 | 34 | 1019.2 |
| 20260503184006 | 71 | 302 | 0.9 | 3.5 | 0.00 | 0.00 | 0.00 | 38 | 1019.2 |
| 20260503183510 | 71 | 113 | 1.7 | 3.5 | 0.00 | 0.00 | 0.00 | 35 | 1019.2 |
| 20260503183023 | 71 | 321 | 0.9 | 5.2 | 0.00 | 0.00 | 0.00 | 37 | 1019.4 |
| 20260503182507 | 71 | 284 | 0.9 | 5.2 | 0.00 | 0.00 | 0.00 | 37 | 1019.5 |
| 20260503182006 | 71 | 301 | 1.7 | 6.1 | 0.00 | 0.00 | 0.00 | 39 | 1019.5 |
| 20260503181528 | 71 | 293 | 2.6 | 6.1 | 0.00 | 0.00 | 0.00 | 34 | 1019.6 |
| 20260503181008 | 71 | 96 | 1.7 | 6.1 | 0.00 | 0.00 | 0.00 | 34 | 1019.6 |
| 20260503180508 | 71 | 154 | 0.9 | 2.6 | 0.00 | 0.00 | 0.00 | 37 | 1019.7 |
| 20260503180020 | 70 | 221 | 0.9 | 3.5 | 0.00 | 0.00 | 0.00 | 39 | 1019.7 |
| 20260503175504 | 70 | 288 | 1.7 | 5.2 | 0.00 | 0.00 | 0.00 | 37 | 1019.9 |
| 20260503175004 | 70 | 233 | 0.0 | 5.2 | 0.00 | 0.00 | 0.00 | 37 | 1019.8 |
| 20260503174504 | 70 | 182 | 0.9 | 6.1 | 0.00 | 0.00 | 0.00 | 38 | 1019.8 |
| 20260503174003 | 70 | 85 | 0.9 | 6.1 | 0.00 | 0.00 | 0.00 | 37 | 1019.9 |
| 20260503173502 | 71 | 300 | 0.9 | 4.3 | 0.00 | 0.00 | 0.00 | 36 | 1020.0 |
| 20260503173035 | 70 | 72 | 0.9 | 4.3 | 0.00 | 0.00 | 0.00 | 39 | 1019.9 |
| 20260503172506 | 70 | 313 | 0.9 | 5.2 | 0.00 | 0.00 | 0.00 | 39 | 1020.0 |
| 20260503172006 | 69 | 129 | 1.7 | 5.2 | 0.00 | 0.00 | 0.00 | 38 | 1020.1 |
| 20260503171502 | 70 | 286 | 1.7 | 6.1 | 0.00 | 0.00 | 0.00 | 39 | 1020.1 |
| 20260503171001 | 70 | 282 | 2.6 | 6.1 | 0.00 | 0.00 | 0.00 | 37 | 1020.2 |
| 20260503170500 | 69 | 58 | 1.7 | 5.2 | 0.00 | 0.01 | 0.00 | 41 | 1020.2 |
| 20260503151000 | 65 | 294 | 0.9 | 2.6 | 0.00 | 0.04 | 0.00 | 47 | 1021.1 |
| 20260503150502 | 65 | 72 | 0.0 | 1.7 | 0.00 | 0.05 | 0.00 | 44 | 1021.1 |
| 20260503131002 | 52 | 81 | 0.0 | 5.2 | 0.00 | 0.16 | 0.00 | 71 | 1020.6 |
| 20260503130500 | 52 | 51 | 0.9 | 2.6 | 0.00 | 0.17 | 0.00 | 71 | 1020.6 |
| 20260503110502 | 43 | 290 | 0.0 | 0.0 | 0.00 | 0.25 | 0.00 | 96 | 1019.5 |
| 20260503090502 | 46 | 290 | 0.0 | 0.0 | 0.00 | 0.35 | 0.00 | 96 | 1017.9 |
| 20260503081505 | 46 | 290 | 0.0 | 0.0 | 0.00 | 0.40 | 0.00 | 95 | 1017.6 |
| 20260503081002 | 47 | 290 | 0.0 | 0.0 | 0.00 | 0.41 | 0.00 | 95 | 1017.5 |
| 20260503080502 | 47 | 290 | 0.0 | 0.0 | 0.00 | 0.41 | 0.00 | 95 | 1017.5 |
| 20260503072501 | 47 | 290 | 0.0 | 0.0 | 0.00 | 0.43 | 0.00 | 95 | 1017.2 |
| 20260503072003 | 47 | 290 | 0.0 | 0.0 | 0.00 | 0.43 | 0.00 | 95 | 1017.2 |
| 20260503071502 | 47 | 290 | 0.0 | 0.0 | 0.00 | 0.43 | 0.00 | 95 | 1017.1 |
| 20260503071002 | 47 | 290 | 0.0 | 0.0 | 0.00 | 0.43 | 0.00 | 95 | 1017.1 |
| 20260503070502 | 47 | 290 | 0.0 | 0.0 | 0.00 | 0.43 | 0.00 | 94 | 1017.1 |
| 20260503053502 | 49 | 290 | 0.0 | 0.0 | 0.00 | 0.43 | 0.00 | 92 | 1016.4 |
| 20260503053002 | 50 | 290 | 0.0 | 0.0 | 0.00 | 0.43 | 0.00 | 93 | 1016.4 |
| 20260503052502 | 50 | 290 | 0.0 | 0.0 | 0.00 | 0.43 | 0.00 | 93 | 1016.4 |
| 20260503052001 | 50 | 290 | 0.0 | 0.0 | 0.00 | 0.43 | 0.00 | 93 | 1016.3 |
| 20260503051503 | 50 | 290 | 0.0 | 0.0 | 0.00 | 0.43 | 0.00 | 93 | 1016.4 |
| 20260503051003 | 50 | 290 | 0.0 | 0.0 | 0.00 | 0.43 | 0.00 | 92 | 1016.4 |
| 20260503044502 | 51 | 290 | 0.0 | 0.0 | 0.00 | 0.43 | 0.00 | 92 | 1016.4 |
| 20260503044004 | 51 | 290 | 0.0 | 0.0 | 0.00 | 0.43 | 0.00 | 92 | 1016.4 |
| 20260503043503 | 51 | 290 | 0.0 | 0.0 | 0.00 | 0.43 | 0.00 | 92 | 1016.4 |
| 20260503043003 | 51 | 290 | 0.0 | 0.0 | 0.00 | 0.43 | 0.00 | 92 | 1016.4 |
| 20260503042502 | 51 | 290 | 0.0 | 0.0 | 0.00 | 0.43 | 0.00 | 92 | 1016.4 |
| 20260503042002 | 51 | 290 | 0.0 | 0.0 | 0.00 | 0.43 | 0.00 | 92 | 1016.3 |
| 20260503035003 | 51 | 290 | 0.0 | 0.0 | 0.00 | 0.43 | 0.43 | 92 | 1016.4 |
| 20260503034503 | 51 | 290 | 0.0 | 0.0 | 0.00 | 0.43 | 0.43 | 92 | 1016.3 |
| 20260503034002 | 51 | 290 | 0.0 | 0.0 | 0.00 | 0.43 | 0.43 | 92 | 1016.2 |
| 20260503033502 | 51 | 290 | 0.0 | 0.0 | 0.00 | 0.43 | 0.43 | 92 | 1016.2 |
| 20260503033002 | 51 | 290 | 0.0 | 0.0 | 0.00 | 0.43 | 0.43 | 92 | 1016.2 |
| 20260503030004 | 50 | 290 | 0.0 | 0.9 | 0.00 | 0.43 | 0.43 | 92 | 1016.1 |
| 20260503025505 | 50 | 290 | 0.0 | 0.9 | 0.00 | 0.43 | 0.43 | 92 | 1015.9 |
| 20260503025003 | 50 | 11 | 0.0 | 0.0 | 0.00 | 0.43 | 0.43 | 91 | 1015.8 |
| 20260503024504 | 51 | 11 | 0.0 | 0.0 | 0.00 | 0.43 | 0.43 | 91 | 1015.6 |
| 20260503024003 | 51 | 11 | 0.0 | 0.0 | 0.00 | 0.43 | 0.43 | 91 | 1015.6 |
| 20260503023503 | 51 | 23 | 0.0 | 0.0 | 0.00 | 0.43 | 0.43 | 91 | 1015.4 |
| 20260503021006 | 51 | 23 | 0.0 | 0.0 | 0.00 | 0.43 | 0.43 | 91 | 1015.0 |
| 20260503020502 | 51 | 23 | 0.0 | 0.0 | 0.00 | 0.43 | 0.43 | 91 | 1015.0 |
| 20260503020004 | 51 | 23 | 0.0 | 0.0 | 0.00 | 0.43 | 0.43 | 91 | 1015.0 |
| 20260503015506 | 51 | 23 | 0.0 | 0.0 | 0.00 | 0.43 | 0.43 | 91 | 1014.9 |
| 20260503015005 | 51 | 23 | 0.0 | 0.0 | 0.00 | 0.43 | 0.43 | 91 | 1014.8 |
| 20260503014504 | 50 | 23 | 0.0 | 0.0 | 0.00 | 0.43 | 0.43 | 91 | 1014.7 |
| 20260503011505 | 51 | 23 | 0.0 | 0.0 | 0.00 | 0.43 | 0.43 | 89 | 1014.4 |
| 20260503011002 | 51 | 23 | 0.0 | 0.0 | 0.00 | 0.43 | 0.43 | 90 | 1014.2 |
| 20260503010502 | 51 | 23 | 0.0 | 0.0 | 0.00 | 0.43 | 0.43 | 89 | 1014.1 |
| 20260503010003 | 51 | 23 | 0.0 | 0.0 | 0.00 | 0.43 | 0.43 | 89 | 1014.0 |
| 20260503005504 | 51 | 23 | 0.0 | 0.0 | 0.00 | 0.43 | 0.43 | 88 | 1014.0 |
| 20260503005004 | 51 | 23 | 0.0 | 0.0 | 0.00 | 0.43 | 0.43 | 88 | 1013.9 |
| 20260503002004 | 54 | 23 | 0.0 | 0.0 | 0.00 | 0.43 | 0.43 | 83 | 1013.8 |
| 20260503001508 | 54 | 23 | 0.0 | 0.0 | 0.00 | 0.43 | 0.43 | 83 | 1013.7 |
| 20260503001004 | 55 | 23 | 0.0 | 0.0 | 0.00 | 0.43 | 0.43 | 82 | 1013.6 |
| 20260503000506 | 55 | 23 | 0.0 | 0.0 | 0.00 | 0.43 | 0.43 | 81 | 1013.5 |
| 20260503000013 | 56 | 23 | 0.0 | 0.0 | 0.00 | 0.43 | 0.43 | 79 | 1013.5 |
| 20260502235502 | 56 | 23 | 0.0 | 0.0 | 0.00 | 0.43 | 0.43 | 78 | 1013.4 |
| 20260502235003 | 56 | 23 | 0.0 | 0.0 | 0.00 | 0.43 | 0.43 | 77 | 1013.4 |
| 20260502234506 | 57 | 23 | 0.0 | 0.0 | 0.00 | 0.43 | 0.43 | 77 | 1013.3 |
| 20260502234004 | 57 | 23 | 0.0 | 0.0 | 0.00 | 0.43 | 0.43 | 76 | 1013.2 |
| 20260502233504 | 57 | 23 | 0.0 | 0.0 | 0.00 | 0.43 | 0.43 | 75 | 1013.2 |
| 20260502233003 | 57 | 23 | 0.0 | 0.0 | 0.00 | 0.43 | 0.43 | 74 | 1013.1 |
| 20260502232503 | 58 | 334 | 0.0 | 0.9 | 0.00 | 0.43 | 0.43 | 73 | 1013.0 |
| 20260502232204 | 58 | 331 | 0.0 | 0.9 | 0.00 | 0.43 | 0.43 | 74 | 1012.9 |
| 20260502231504 | 58 | 58 | 0.0 | 0.9 | 0.00 | 0.43 | 0.43 | 72 | 1013.0 |
| 20260502231003 | 58 | 74 | 0.0 | 0.9 | 0.00 | 0.43 | 0.43 | 72 | 1013.1 |
| 20260502230504 | 58 | 357 | 0.0 | 0.9 | 0.00 | 0.43 | 0.43 | 72 | 1013.1 |
| 20260502230005 | 58 | 1 | 0.0 | 0.9 | 0.00 | 0.43 | 0.43 | 73 | 1012.9 |
| 20260502225503 | 58 | 1 | 0.0 | 0.9 | 0.00 | 0.43 | 0.43 | 74 | 1012.9 |
| 20260502225004 | 58 | 1 | 0.0 | 0.9 | 0.00 | 0.43 | 0.43 | 73 | 1013.0 |
| 20260502224507 | 57 | 360 | 0.0 | 0.9 | 0.00 | 0.43 | 0.43 | 73 | 1013.0 |
| 20260502224003 | 57 | 11 | 0.0 | 1.7 | 0.00 | 0.43 | 0.43 | 72 | 1013.0 |
| 20260502223503 | 58 | 11 | 0.0 | 1.7 | 0.00 | 0.43 | 0.43 | 72 | 1012.9 |
| 20260502223015 | 58 | 335 | 0.0 | 0.9 | 0.00 | 0.43 | 0.43 | 73 | 1013.0 |
| 20260502222503 | 58 | 341 | 0.0 | 0.9 | 0.00 | 0.43 | 0.43 | 74 | 1013.0 |
| 20260502222005 | 58 | 345 | 0.0 | 0.9 | 0.00 | 0.43 | 0.43 | 72 | 1012.9 |
| 20260502221506 | 58 | 345 | 0.0 | 0.9 | 0.00 | 0.43 | 0.43 | 74 | 1013.0 |
| 20260502221008 | 58 | 345 | 0.0 | 0.9 | 0.00 | 0.43 | 0.43 | 73 | 1012.9 |
| 20260502220504 | 58 | 6 | 0.0 | 1.7 | 0.00 | 0.43 | 0.43 | 74 | 1012.9 |
| 20260502220007 | 58 | 8 | 0.9 | 1.7 | 0.00 | 0.43 | 0.43 | 73 | 1012.9 |
| 20260502215504 | 58 | 73 | 0.0 | 0.9 | 0.00 | 0.43 | 0.43 | 73 | 1012.9 |
| 20260502215007 | 57 | 49 | 0.0 | 2.6 | 0.00 | 0.43 | 0.43 | 73 | 1012.9 |
| 20260502214504 | 57 | 345 | 0.9 | 2.6 | 0.00 | 0.43 | 0.43 | 73 | 1012.9 |
| 20260502214007 | 58 | 336 | 0.0 | 2.6 | 0.00 | 0.43 | 0.43 | 73 | 1012.7 |
| 20260502213503 | 58 | 333 | 0.0 | 2.6 | 0.00 | 0.43 | 0.43 | 72 | 1012.6 |
| 20260502213007 | 58 | 41 | 0.0 | 1.7 | 0.00 | 0.43 | 0.43 | 72 | 1012.5 |
| 20260502212503 | 58 | 11 | 0.0 | 1.7 | 0.00 | 0.43 | 0.43 | 72 | 1012.5 |
| 20260502212005 | 58 | 304 | 0.0 | 4.3 | 0.00 | 0.43 | 0.43 | 72 | 1012.4 |
| 20260502211505 | 58 | 171 | 0.0 | 4.3 | 0.00 | 0.43 | 0.43 | 73 | 1012.4 |
| 20260502211005 | 58 | 345 | 0.0 | 3.5 | 0.00 | 0.43 | 0.43 | 72 | 1012.4 |
| 20260502210506 | 58 | 25 | 0.9 | 3.5 | 0.00 | 0.43 | 0.43 | 70 | 1012.5 |
| 20260502210006 | 58 | 72 | 0.9 | 3.5 | 0.00 | 0.43 | 0.43 | 71 | 1012.6 |
| 20260502205508 | 58 | 319 | 0.0 | 1.7 | 0.00 | 0.43 | 0.43 | 72 | 1012.7 |
| 20260502205004 | 58 | 49 | 0.0 | 1.7 | 0.00 | 0.43 | 0.43 | 71 | 1012.5 |
| 20260502204509 | 58 | 8 | 0.0 | 2.6 | 0.00 | 0.43 | 0.43 | 72 | 1012.6 |
| 20260502204004 | 58 | 334 | 1.7 | 4.3 | 0.00 | 0.43 | 0.43 | 70 | 1012.8 |
| 20260502203503 | 58 | 16 | 0.9 | 4.3 | 0.00 | 0.43 | 0.43 | 72 | 1012.8 |
| 20260502203008 | 57 | 103 | 0.9 | 3.5 | 0.00 | 0.43 | 0.43 | 73 | 1012.7 |
| 20260502202503 | 57 | 50 | 0.9 | 3.5 | 0.00 | 0.43 | 0.43 | 74 | 1012.7 |
| 20260502202004 | 57 | 63 | 0.9 | 2.6 | 0.00 | 0.43 | 0.43 | 74 | 1012.7 |
| 20260502201513 | 57 | 141 | 0.0 | 2.6 | 0.00 | 0.43 | 0.43 | 76 | 1012.6 |
| 20260502201004 | 56 | 75 | 0.9 | 2.6 | 0.00 | 0.43 | 0.43 | 76 | 1012.7 |
| 20260502200504 | 56 | 343 | 0.0 | 3.5 | 0.00 | 0.43 | 0.43 | 76 | 1012.8 |
| 20260502200010 | 56 | 330 | 0.9 | 3.5 | 0.00 | 0.43 | 0.43 | 77 | 1013.1 |
| 20260502195503 | 56 | 345 | 0.0 | 1.7 | 0.00 | 0.43 | 0.43 | 77 | 1013.2 |
| 20260502195002 | 56 | 347 | 0.9 | 1.7 | 0.00 | 0.43 | 0.43 | 78 | 1013.3 |
| 20260502194510 | 55 | 23 | 0.9 | 1.7 | 0.00 | 0.43 | 0.43 | 78 | 1013.3 |
| 20260502194004 | 55 | 72 | 0.0 | 1.7 | 0.00 | 0.43 | 0.43 | 79 | 1013.2 |
| 20260502193504 | 55 | 352 | 0.0 | 3.5 | 0.00 | 0.43 | 0.43 | 79 | 1013.2 |
| 20260502193006 | 55 | 19 | 0.9 | 3.5 | 0.00 | 0.43 | 0.43 | 77 | 1013.2 |
| 20260502192507 | 55 | 345 | 0.9 | 2.6 | 0.00 | 0.43 | 0.43 | 78 | 1013.2 |
| 20260502191507 | 55 | 327 | 0.9 | 4.3 | 0.00 | 0.43 | 0.43 | 78 | 1013.3 |
| 20260502191003 | 55 | 18 | 0.9 | 4.3 | 0.00 | 0.43 | 0.43 | 78 | 1013.3 |
| 20260502190503 | 56 | 342 | 0.9 | 2.6 | 0.00 | 0.43 | 0.43 | 80 | 1013.3 |
| 20260502190010 | 56 | 32 | 0.9 | 2.6 | 0.00 | 0.43 | 0.43 | 79 | 1013.4 |
| 20260502185504 | 56 | 35 | 0.9 | 2.6 | 0.00 | 0.43 | 0.43 | 80 | 1013.3 |